sensor_id;sensor_type;location;lat;lon;timestamp;P1;durP1;ratioP1;P2;durP2;ratioP2
4021;SDS011;2025;48.260;16.432;2023-07-20T00:01:34;6.43;;;3.90;;
4021;SDS011;2025;48.260;16.432;2023-07-20T00:04:01;7.18;;;3.45;;
4021;SDS011;2025;48.260;16.432;2023-07-20T00:06:28;9.88;;;4.28;;
4021;SDS011;2025;48.260;16.432;2023-07-20T00:08:55;7.30;;;2.65;;
4021;SDS011;2025;48.260;16.432;2023-07-20T00:11:25;7.53;;;3.67;;
4021;SDS011;2025;48.260;16.432;2023-07-20T00:13:53;7.03;;;3.50;;
4021;SDS011;2025;48.260;16.432;2023-07-20T00:16:20;6.82;;;3.00;;
4021;SDS011;2025;48.260;16.432;2023-07-20T00:18:47;7.22;;;3.08;;
4021;SDS011;2025;48.260;16.432;2023-07-20T00:21:14;7.43;;;2.83;;
4021;SDS011;2025;48.260;16.432;2023-07-20T00:23:41;6.50;;;2.80;;
4021;SDS011;2025;48.260;16.432;2023-07-20T00:26:08;8.20;;;2.92;;
4021;SDS011;2025;48.260;16.432;2023-07-20T00:28:36;6.28;;;3.25;;
4021;SDS011;2025;48.260;16.432;2023-07-20T00:31:04;8.35;;;3.08;;
4021;SDS011;2025;48.260;16.432;2023-07-20T00:33:31;7.15;;;3.22;;
4021;SDS011;2025;48.260;16.432;2023-07-20T00:35:57;7.75;;;2.90;;
4021;SDS011;2025;48.260;16.432;2023-07-20T00:38:24;7.00;;;3.83;;
4021;SDS011;2025;48.260;16.432;2023-07-20T00:40:52;7.30;;;3.60;;
4021;SDS011;2025;48.260;16.432;2023-07-20T00:43:19;7.63;;;3.80;;
4021;SDS011;2025;48.260;16.432;2023-07-20T00:45:47;6.90;;;3.03;;
4021;SDS011;2025;48.260;16.432;2023-07-20T00:48:14;7.75;;;2.90;;
4021;SDS011;2025;48.260;16.432;2023-07-20T00:50:41;7.00;;;3.92;;
4021;SDS011;2025;48.260;16.432;2023-07-20T00:53:09;6.93;;;2.80;;
4021;SDS011;2025;48.260;16.432;2023-07-20T00:55:36;6.35;;;3.30;;
4021;SDS011;2025;48.260;16.432;2023-07-20T00:58:03;5.80;;;2.83;;
4021;SDS011;2025;48.260;16.432;2023-07-20T01:00:30;6.80;;;3.28;;
4021;SDS011;2025;48.260;16.432;2023-07-20T01:02:59;6.07;;;2.97;;
4021;SDS011;2025;48.260;16.432;2023-07-20T01:05:28;7.38;;;3.47;;
4021;SDS011;2025;48.260;16.432;2023-07-20T01:08:06;7.32;;;2.00;;
4021;SDS011;2025;48.260;16.432;2023-07-20T01:10:39;6.93;;;3.05;;
4021;SDS011;2025;48.260;16.432;2023-07-20T01:13:10;6.35;;;2.83;;
4021;SDS011;2025;48.260;16.432;2023-07-20T01:15:40;7.57;;;3.67;;
4021;SDS011;2025;48.260;16.432;2023-07-20T01:18:09;6.00;;;2.63;;
4021;SDS011;2025;48.260;16.432;2023-07-20T01:20:36;7.88;;;2.15;;
4021;SDS011;2025;48.260;16.432;2023-07-20T01:23:22;6.15;;;2.78;;
4021;SDS011;2025;48.260;16.432;2023-07-20T01:26:07;7.63;;;3.20;;
4021;SDS011;2025;48.260;16.432;2023-07-20T01:28:49;6.28;;;2.47;;
4021;SDS011;2025;48.260;16.432;2023-07-20T01:31:45;6.20;;;2.83;;
4021;SDS011;2025;48.260;16.432;2023-07-20T01:34:17;5.80;;;3.15;;
4021;SDS011;2025;48.260;16.432;2023-07-20T01:36:46;7.05;;;2.97;;
4021;SDS011;2025;48.260;16.432;2023-07-20T01:39:16;5.93;;;2.65;;
4021;SDS011;2025;48.260;16.432;2023-07-20T01:41:43;5.15;;;2.08;;
4021;SDS011;2025;48.260;16.432;2023-07-20T01:44:12;6.65;;;2.95;;
4021;SDS011;2025;48.260;16.432;2023-07-20T01:46:39;5.30;;;2.50;;
4021;SDS011;2025;48.260;16.432;2023-07-20T01:49:08;5.85;;;2.78;;
4021;SDS011;2025;48.260;16.432;2023-07-20T01:51:35;6.03;;;2.42;;
4021;SDS011;2025;48.260;16.432;2023-07-20T01:54:02;6.90;;;2.70;;
4021;SDS011;2025;48.260;16.432;2023-07-20T01:56:29;8.00;;;2.72;;
4021;SDS011;2025;48.260;16.432;2023-07-20T01:58:56;6.20;;;2.30;;
4021;SDS011;2025;48.260;16.432;2023-07-20T02:01:23;5.75;;;2.20;;
4021;SDS011;2025;48.260;16.432;2023-07-20T02:03:50;6.80;;;2.45;;
4021;SDS011;2025;48.260;16.432;2023-07-20T02:06:18;6.65;;;2.88;;
4021;SDS011;2025;48.260;16.432;2023-07-20T02:08:45;6.68;;;2.15;;
4021;SDS011;2025;48.260;16.432;2023-07-20T02:11:12;7.75;;;2.92;;
4021;SDS011;2025;48.260;16.432;2023-07-20T02:13:39;5.82;;;2.85;;
4021;SDS011;2025;48.260;16.432;2023-07-20T02:16:06;5.80;;;2.55;;
4021;SDS011;2025;48.260;16.432;2023-07-20T02:18:33;8.23;;;2.67;;
4021;SDS011;2025;48.260;16.432;2023-07-20T02:21:00;6.28;;;2.58;;
4021;SDS011;2025;48.260;16.432;2023-07-20T02:23:28;7.13;;;3.90;;
4021;SDS011;2025;48.260;16.432;2023-07-20T02:25:55;6.05;;;2.72;;
4021;SDS011;2025;48.260;16.432;2023-07-20T02:28:22;7.05;;;2.50;;
4021;SDS011;2025;48.260;16.432;2023-07-20T02:30:50;4.82;;;1.77;;
4021;SDS011;2025;48.260;16.432;2023-07-20T02:33:17;5.88;;;2.10;;
4021;SDS011;2025;48.260;16.432;2023-07-20T02:35:43;5.50;;;1.98;;
4021;SDS011;2025;48.260;16.432;2023-07-20T02:38:10;6.43;;;2.65;;
4021;SDS011;2025;48.260;16.432;2023-07-20T02:40:39;6.28;;;2.53;;
4021;SDS011;2025;48.260;16.432;2023-07-20T02:43:06;7.05;;;2.22;;
4021;SDS011;2025;48.260;16.432;2023-07-20T02:45:34;7.75;;;3.33;;
4021;SDS011;2025;48.260;16.432;2023-07-20T02:48:02;6.82;;;2.08;;
4021;SDS011;2025;48.260;16.432;2023-07-20T02:50:33;5.72;;;1.77;;
4021;SDS011;2025;48.260;16.432;2023-07-20T02:53:00;5.78;;;2.63;;
4021;SDS011;2025;48.260;16.432;2023-07-20T02:55:27;5.57;;;2.40;;
4021;SDS011;2025;48.260;16.432;2023-07-20T02:57:55;7.43;;;2.33;;
4021;SDS011;2025;48.260;16.432;2023-07-20T03:00:22;4.88;;;2.58;;
4021;SDS011;2025;48.260;16.432;2023-07-20T03:02:50;7.20;;;2.13;;
4021;SDS011;2025;48.260;16.432;2023-07-20T03:05:21;4.63;;;1.70;;
4021;SDS011;2025;48.260;16.432;2023-07-20T03:07:50;5.47;;;2.33;;
4021;SDS011;2025;48.260;16.432;2023-07-20T03:10:17;5.88;;;2.67;;
4021;SDS011;2025;48.260;16.432;2023-07-20T03:12:44;7.43;;;3.10;;
4021;SDS011;2025;48.260;16.432;2023-07-20T03:15:13;8.48;;;2.88;;
4021;SDS011;2025;48.260;16.432;2023-07-20T03:17:40;7.68;;;1.95;;
4021;SDS011;2025;48.260;16.432;2023-07-20T03:20:07;5.03;;;2.05;;
4021;SDS011;2025;48.260;16.432;2023-07-20T03:22:35;9.45;;;2.63;;
4021;SDS011;2025;48.260;16.432;2023-07-20T03:25:04;6.43;;;3.50;;
4021;SDS011;2025;48.260;16.432;2023-07-20T03:27:31;8.23;;;2.08;;
4021;SDS011;2025;48.260;16.432;2023-07-20T03:29:58;4.80;;;1.52;;
4021;SDS011;2025;48.260;16.432;2023-07-20T03:32:26;6.60;;;3.15;;
4021;SDS011;2025;48.260;16.432;2023-07-20T03:34:54;6.85;;;2.70;;
4021;SDS011;2025;48.260;16.432;2023-07-20T03:37:20;5.90;;;2.45;;
4021;SDS011;2025;48.260;16.432;2023-07-20T03:39:47;6.03;;;2.45;;
4021;SDS011;2025;48.260;16.432;2023-07-20T03:42:14;8.10;;;3.53;;
4021;SDS011;2025;48.260;16.432;2023-07-20T03:44:41;5.72;;;2.08;;
4021;SDS011;2025;48.260;16.432;2023-07-20T03:47:08;5.60;;;2.90;;
4021;SDS011;2025;48.260;16.432;2023-07-20T03:49:37;5.80;;;2.45;;
4021;SDS011;2025;48.260;16.432;2023-07-20T03:52:04;5.88;;;3.05;;
4021;SDS011;2025;48.260;16.432;2023-07-20T03:54:31;7.00;;;2.97;;
4021;SDS011;2025;48.260;16.432;2023-07-20T03:56:58;5.45;;;1.70;;
4021;SDS011;2025;48.260;16.432;2023-07-20T03:59:26;7.10;;;3.10;;
4021;SDS011;2025;48.260;16.432;2023-07-20T04:01:53;6.15;;;2.83;;
4021;SDS011;2025;48.260;16.432;2023-07-20T04:04:20;6.40;;;2.40;;
4021;SDS011;2025;48.260;16.432;2023-07-20T04:06:48;6.25;;;2.78;;
4021;SDS011;2025;48.260;16.432;2023-07-20T04:09:15;6.78;;;2.78;;
4021;SDS011;2025;48.260;16.432;2023-07-20T04:11:42;7.47;;;3.35;;
4021;SDS011;2025;48.260;16.432;2023-07-20T04:14:09;7.32;;;1.85;;
4021;SDS011;2025;48.260;16.432;2023-07-20T04:16:36;5.95;;;2.95;;
4021;SDS011;2025;48.260;16.432;2023-07-20T04:19:03;7.20;;;2.83;;
4021;SDS011;2025;48.260;16.432;2023-07-20T04:21:30;6.57;;;2.63;;
4021;SDS011;2025;48.260;16.432;2023-07-20T04:23:59;6.47;;;2.92;;
4021;SDS011;2025;48.260;16.432;2023-07-20T04:26:25;6.55;;;2.67;;
4021;SDS011;2025;48.260;16.432;2023-07-20T04:28:52;5.38;;;2.90;;
4021;SDS011;2025;48.260;16.432;2023-07-20T04:31:19;5.82;;;2.50;;
4021;SDS011;2025;48.260;16.432;2023-07-20T04:33:46;6.60;;;2.55;;
4021;SDS011;2025;48.260;16.432;2023-07-20T04:36:13;6.35;;;3.58;;
4021;SDS011;2025;48.260;16.432;2023-07-20T04:38:44;5.78;;;2.25;;
4021;SDS011;2025;48.260;16.432;2023-07-20T04:41:13;4.28;;;2.13;;
4021;SDS011;2025;48.260;16.432;2023-07-20T04:43:41;5.97;;;2.78;;
4021;SDS011;2025;48.260;16.432;2023-07-20T04:46:08;7.20;;;3.10;;
4021;SDS011;2025;48.260;16.432;2023-07-20T04:48:35;6.22;;;1.67;;
4021;SDS011;2025;48.260;16.432;2023-07-20T04:51:02;5.97;;;2.35;;
4021;SDS011;2025;48.260;16.432;2023-07-20T04:53:30;6.10;;;3.25;;
4021;SDS011;2025;48.260;16.432;2023-07-20T04:55:57;6.18;;;2.15;;
4021;SDS011;2025;48.260;16.432;2023-07-20T04:58:25;6.63;;;2.45;;
4021;SDS011;2025;48.260;16.432;2023-07-20T05:00:52;8.05;;;3.17;;
4021;SDS011;2025;48.260;16.432;2023-07-20T05:03:19;7.78;;;3.60;;
4021;SDS011;2025;48.260;16.432;2023-07-20T05:05:47;6.85;;;2.75;;
4021;SDS011;2025;48.260;16.432;2023-07-20T05:08:14;8.07;;;2.83;;
4021;SDS011;2025;48.260;16.432;2023-07-20T05:10:41;7.25;;;2.83;;
4021;SDS011;2025;48.260;16.432;2023-07-20T05:13:08;7.78;;;2.92;;
4021;SDS011;2025;48.260;16.432;2023-07-20T05:15:36;8.15;;;3.00;;
4021;SDS011;2025;48.260;16.432;2023-07-20T05:18:03;8.65;;;3.58;;
4021;SDS011;2025;48.260;16.432;2023-07-20T05:20:31;7.57;;;2.85;;
4021;SDS011;2025;48.260;16.432;2023-07-20T05:22:58;6.70;;;1.70;;
4021;SDS011;2025;48.260;16.432;2023-07-20T05:25:26;6.82;;;2.45;;
4021;SDS011;2025;48.260;16.432;2023-07-20T05:27:53;8.10;;;3.40;;
4021;SDS011;2025;48.260;16.432;2023-07-20T05:30:21;6.40;;;2.47;;
4021;SDS011;2025;48.260;16.432;2023-07-20T05:32:50;6.85;;;2.53;;
4021;SDS011;2025;48.260;16.432;2023-07-20T05:35:19;8.23;;;3.70;;
4021;SDS011;2025;48.260;16.432;2023-07-20T05:37:47;8.02;;;3.22;;
4021;SDS011;2025;48.260;16.432;2023-07-20T05:40:14;5.85;;;2.65;;
4021;SDS011;2025;48.260;16.432;2023-07-20T05:42:44;15.05;;;2.92;;
4021;SDS011;2025;48.260;16.432;2023-07-20T05:45:13;6.38;;;2.58;;
4021;SDS011;2025;48.260;16.432;2023-07-20T05:47:41;8.20;;;3.03;;
4021;SDS011;2025;48.260;16.432;2023-07-20T05:50:10;7.07;;;3.22;;
4021;SDS011;2025;48.260;16.432;2023-07-20T05:52:37;7.82;;;3.13;;
4021;SDS011;2025;48.260;16.432;2023-07-20T05:55:05;5.82;;;2.65;;
4021;SDS011;2025;48.260;16.432;2023-07-20T05:57:32;6.32;;;3.60;;
4021;SDS011;2025;48.260;16.432;2023-07-20T06:00:00;7.88;;;3.20;;
4021;SDS011;2025;48.260;16.432;2023-07-20T06:02:28;7.53;;;3.13;;
4021;SDS011;2025;48.260;16.432;2023-07-20T06:04:55;7.82;;;2.90;;
4021;SDS011;2025;48.260;16.432;2023-07-20T06:07:23;6.43;;;3.10;;
4021;SDS011;2025;48.260;16.432;2023-07-20T06:09:50;6.40;;;3.03;;
4021;SDS011;2025;48.260;16.432;2023-07-20T06:12:17;4.65;;;2.42;;
4021;SDS011;2025;48.260;16.432;2023-07-20T06:14:44;7.13;;;2.50;;
4021;SDS011;2025;48.260;16.432;2023-07-20T06:17:11;7.35;;;3.15;;
4021;SDS011;2025;48.260;16.432;2023-07-20T06:19:38;9.23;;;3.08;;
4021;SDS011;2025;48.260;16.432;2023-07-20T06:22:05;6.55;;;3.33;;
4021;SDS011;2025;48.260;16.432;2023-07-20T06:24:33;8.00;;;2.53;;
4021;SDS011;2025;48.260;16.432;2023-07-20T06:27:00;6.57;;;1.75;;
4021;SDS011;2025;48.260;16.432;2023-07-20T06:29:27;7.00;;;3.13;;
4021;SDS011;2025;48.260;16.432;2023-07-20T06:31:54;6.88;;;2.22;;
4021;SDS011;2025;48.260;16.432;2023-07-20T06:34:21;8.45;;;2.28;;
4021;SDS011;2025;48.260;16.432;2023-07-20T06:36:48;5.53;;;2.90;;
4021;SDS011;2025;48.260;16.432;2023-07-20T06:39:15;5.55;;;2.03;;
4021;SDS011;2025;48.260;16.432;2023-07-20T06:41:44;6.03;;;2.95;;
4021;SDS011;2025;48.260;16.432;2023-07-20T06:44:11;6.68;;;2.90;;
4021;SDS011;2025;48.260;16.432;2023-07-20T06:46:38;6.18;;;2.35;;
4021;SDS011;2025;48.260;16.432;2023-07-20T06:49:05;5.70;;;2.67;;
4021;SDS011;2025;48.260;16.432;2023-07-20T06:51:33;6.45;;;2.55;;
4021;SDS011;2025;48.260;16.432;2023-07-20T06:54:00;6.88;;;2.45;;
4021;SDS011;2025;48.260;16.432;2023-07-20T06:56:29;7.53;;;3.10;;
4021;SDS011;2025;48.260;16.432;2023-07-20T06:58:58;7.15;;;2.92;;
4021;SDS011;2025;48.260;16.432;2023-07-20T07:01:25;6.53;;;2.50;;
4021;SDS011;2025;48.260;16.432;2023-07-20T07:03:52;6.57;;;2.42;;
4021;SDS011;2025;48.260;16.432;2023-07-20T07:06:19;4.47;;;2.25;;
4021;SDS011;2025;48.260;16.432;2023-07-20T07:08:47;5.47;;;2.72;;
4021;SDS011;2025;48.260;16.432;2023-07-20T07:11:14;6.78;;;2.17;;
4021;SDS011;2025;48.260;16.432;2023-07-20T07:13:41;6.18;;;2.08;;
4021;SDS011;2025;48.260;16.432;2023-07-20T07:16:10;6.80;;;2.53;;
4021;SDS011;2025;48.260;16.432;2023-07-20T07:18:36;9.50;;;3.03;;
4021;SDS011;2025;48.260;16.432;2023-07-20T07:21:05;6.55;;;2.63;;
4021;SDS011;2025;48.260;16.432;2023-07-20T07:23:32;5.88;;;2.63;;
4021;SDS011;2025;48.260;16.432;2023-07-20T07:25:59;5.30;;;2.58;;
4021;SDS011;2025;48.260;16.432;2023-07-20T07:28:27;6.57;;;3.40;;
4021;SDS011;2025;48.260;16.432;2023-07-20T07:30:55;7.00;;;2.65;;
4021;SDS011;2025;48.260;16.432;2023-07-20T07:33:24;6.20;;;2.58;;
4021;SDS011;2025;48.260;16.432;2023-07-20T07:35:51;5.40;;;2.30;;
4021;SDS011;2025;48.260;16.432;2023-07-20T07:38:18;6.00;;;2.17;;
4021;SDS011;2025;48.260;16.432;2023-07-20T07:40:45;6.28;;;2.03;;
4021;SDS011;2025;48.260;16.432;2023-07-20T07:43:12;5.65;;;2.53;;
4021;SDS011;2025;48.260;16.432;2023-07-20T07:45:40;7.18;;;2.13;;
4021;SDS011;2025;48.260;16.432;2023-07-20T07:48:07;4.85;;;2.63;;
4021;SDS011;2025;48.260;16.432;2023-07-20T07:50:38;4.63;;;1.73;;
4021;SDS011;2025;48.260;16.432;2023-07-20T07:53:05;6.90;;;2.72;;
4021;SDS011;2025;48.260;16.432;2023-07-20T07:55:32;6.40;;;2.30;;
4021;SDS011;2025;48.260;16.432;2023-07-20T07:57:59;6.38;;;1.80;;
4021;SDS011;2025;48.260;16.432;2023-07-20T08:00:26;5.68;;;1.50;;
4021;SDS011;2025;48.260;16.432;2023-07-20T08:02:53;5.85;;;1.85;;
4021;SDS011;2025;48.260;16.432;2023-07-20T08:05:20;10.60;;;2.08;;
4021;SDS011;2025;48.260;16.432;2023-07-20T08:07:48;8.15;;;2.42;;
4021;SDS011;2025;48.260;16.432;2023-07-20T08:10:15;5.22;;;2.42;;
4021;SDS011;2025;48.260;16.432;2023-07-20T08:12:42;5.00;;;2.03;;
4021;SDS011;2025;48.260;16.432;2023-07-20T08:15:10;6.80;;;1.65;;
4021;SDS011;2025;48.260;16.432;2023-07-20T08:17:39;6.90;;;2.00;;
4021;SDS011;2025;48.260;16.432;2023-07-20T08:20:07;6.78;;;1.75;;
4021;SDS011;2025;48.260;16.432;2023-07-20T08:22:37;5.25;;;2.10;;
4021;SDS011;2025;48.260;16.432;2023-07-20T08:25:06;5.20;;;2.05;;
4021;SDS011;2025;48.260;16.432;2023-07-20T08:27:34;5.97;;;1.48;;
4021;SDS011;2025;48.260;16.432;2023-07-20T08:30:01;6.90;;;1.17;;
4021;SDS011;2025;48.260;16.432;2023-07-20T08:32:29;7.35;;;2.00;;
4021;SDS011;2025;48.260;16.432;2023-07-20T08:34:56;4.60;;;1.23;;
4021;SDS011;2025;48.260;16.432;2023-07-20T08:37:23;4.85;;;1.48;;
4021;SDS011;2025;48.260;16.432;2023-07-20T08:39:50;8.02;;;1.90;;
4021;SDS011;2025;48.260;16.432;2023-07-20T08:42:18;5.50;;;2.33;;
4021;SDS011;2025;48.260;16.432;2023-07-20T08:44:47;6.70;;;1.85;;
4021;SDS011;2025;48.260;16.432;2023-07-20T08:47:15;4.70;;;1.52;;
4021;SDS011;2025;48.260;16.432;2023-07-20T08:49:43;6.88;;;2.67;;
4021;SDS011;2025;48.260;16.432;2023-07-20T08:54:41;5.50;;;1.52;;
4021;SDS011;2025;48.260;16.432;2023-07-20T08:57:08;7.07;;;2.60;;
4021;SDS011;2025;48.260;16.432;2023-07-20T08:59:41;6.15;;;1.75;;
4021;SDS011;2025;48.260;16.432;2023-07-20T09:02:09;5.32;;;2.42;;
4021;SDS011;2025;48.260;16.432;2023-07-20T09:04:43;8.68;;;2.67;;
4021;SDS011;2025;48.260;16.432;2023-07-20T09:07:11;6.72;;;2.00;;
4021;SDS011;2025;48.260;16.432;2023-07-20T09:09:39;6.07;;;2.17;;
4021;SDS011;2025;48.260;16.432;2023-07-20T09:12:12;6.00;;;2.78;;
4021;SDS011;2025;48.260;16.432;2023-07-20T09:14:41;6.93;;;2.88;;
4021;SDS011;2025;48.260;16.432;2023-07-20T09:17:12;6.75;;;2.10;;
4021;SDS011;2025;48.260;16.432;2023-07-20T09:19:45;5.80;;;2.50;;
4021;SDS011;2025;48.260;16.432;2023-07-20T09:22:13;6.47;;;1.88;;
4021;SDS011;2025;48.260;16.432;2023-07-20T09:24:40;7.38;;;3.15;;
4021;SDS011;2025;48.260;16.432;2023-07-20T09:27:07;4.70;;;1.42;;
4021;SDS011;2025;48.260;16.432;2023-07-20T09:29:41;8.23;;;2.22;;
4021;SDS011;2025;48.260;16.432;2023-07-20T09:32:17;6.07;;;2.30;;
4021;SDS011;2025;48.260;16.432;2023-07-20T09:34:45;6.18;;;2.50;;
4021;SDS011;2025;48.260;16.432;2023-07-20T09:37:13;5.30;;;2.38;;
4021;SDS011;2025;48.260;16.432;2023-07-20T09:39:43;5.22;;;2.05;;
4021;SDS011;2025;48.260;16.432;2023-07-20T09:42:11;6.53;;;2.53;;
4021;SDS011;2025;48.260;16.432;2023-07-20T09:44:38;6.35;;;3.08;;
4021;SDS011;2025;48.260;16.432;2023-07-20T09:47:07;6.00;;;2.83;;
4021;SDS011;2025;48.260;16.432;2023-07-20T09:49:38;5.78;;;2.90;;
4021;SDS011;2025;48.260;16.432;2023-07-20T09:52:06;7.10;;;2.70;;
4021;SDS011;2025;48.260;16.432;2023-07-20T09:54:34;6.90;;;2.38;;
4021;SDS011;2025;48.260;16.432;2023-07-20T09:57:03;7.50;;;3.05;;
4021;SDS011;2025;48.260;16.432;2023-07-20T09:59:33;6.80;;;3.63;;
4021;SDS011;2025;48.260;16.432;2023-07-20T10:02:01;8.07;;;2.78;;
4021;SDS011;2025;48.260;16.432;2023-07-20T10:04:33;6.80;;;1.73;;
4021;SDS011;2025;48.260;16.432;2023-07-20T10:07:03;6.50;;;2.08;;
4021;SDS011;2025;48.260;16.432;2023-07-20T10:09:36;5.53;;;3.10;;
4021;SDS011;2025;48.260;16.432;2023-07-20T10:12:07;6.25;;;2.67;;
4021;SDS011;2025;48.260;16.432;2023-07-20T10:14:36;5.53;;;2.55;;
4021;SDS011;2025;48.260;16.432;2023-07-20T10:17:07;5.45;;;1.40;;
4021;SDS011;2025;48.260;16.432;2023-07-20T10:19:42;7.55;;;2.28;;
4021;SDS011;2025;48.260;16.432;2023-07-20T10:27:08;6.18;;;1.80;;
4021;SDS011;2025;48.260;16.432;2023-07-20T10:29:35;6.45;;;1.98;;
4021;SDS011;2025;48.260;16.432;2023-07-20T10:32:04;5.75;;;3.03;;
4021;SDS011;2025;48.260;16.432;2023-07-20T10:34:33;5.57;;;1.88;;
4021;SDS011;2025;48.260;16.432;2023-07-20T10:37:02;7.15;;;1.95;;
4021;SDS011;2025;48.260;16.432;2023-07-20T10:39:30;7.85;;;2.40;;
4021;SDS011;2025;48.260;16.432;2023-07-20T10:42:01;5.47;;;2.35;;
4021;SDS011;2025;48.260;16.432;2023-07-20T10:44:29;6.45;;;3.03;;
4021;SDS011;2025;48.260;16.432;2023-07-20T10:47:00;6.47;;;1.77;;
4021;SDS011;2025;48.260;16.432;2023-07-20T10:49:28;5.40;;;2.33;;
4021;SDS011;2025;48.260;16.432;2023-07-20T10:51:58;6.63;;;1.80;;
4021;SDS011;2025;48.260;16.432;2023-07-20T10:57:22;4.85;;;1.92;;
4021;SDS011;2025;48.260;16.432;2023-07-20T10:59:51;4.70;;;1.67;;
4021;SDS011;2025;48.260;16.432;2023-07-20T11:02:41;4.63;;;2.00;;
4021;SDS011;2025;48.260;16.432;2023-07-20T11:08:02;5.57;;;1.80;;
4021;SDS011;2025;48.260;16.432;2023-07-20T11:10:33;5.40;;;2.17;;
4021;SDS011;2025;48.260;16.432;2023-07-20T11:13:18;3.83;;;1.25;;
4021;SDS011;2025;48.260;16.432;2023-07-20T11:15:48;8.00;;;1.45;;
4021;SDS011;2025;48.260;16.432;2023-07-20T11:18:33;4.80;;;1.90;;
4021;SDS011;2025;48.260;16.432;2023-07-20T11:21:06;5.75;;;1.85;;
4021;SDS011;2025;48.260;16.432;2023-07-20T11:23:35;5.65;;;1.63;;
4021;SDS011;2025;48.260;16.432;2023-07-20T11:26:06;6.03;;;1.10;;
4021;SDS011;2025;48.260;16.432;2023-07-20T11:28:34;8.52;;;1.55;;
4021;SDS011;2025;48.260;16.432;2023-07-20T11:31:01;5.50;;;1.33;;
4021;SDS011;2025;48.260;16.432;2023-07-20T11:33:28;5.20;;;1.73;;
4021;SDS011;2025;48.260;16.432;2023-07-20T11:35:55;5.70;;;0.85;;
4021;SDS011;2025;48.260;16.432;2023-07-20T11:38:23;4.80;;;1.33;;
4021;SDS011;2025;48.260;16.432;2023-07-20T11:40:50;4.70;;;0.82;;
4021;SDS011;2025;48.260;16.432;2023-07-20T11:43:19;4.43;;;0.60;;
4021;SDS011;2025;48.260;16.432;2023-07-20T11:45:48;5.10;;;1.50;;
4021;SDS011;2025;48.260;16.432;2023-07-20T11:48:15;3.97;;;1.30;;
4021;SDS011;2025;48.260;16.432;2023-07-20T11:50:43;3.65;;;1.17;;
4021;SDS011;2025;48.260;16.432;2023-07-20T11:53:09;5.38;;;1.75;;
4021;SDS011;2025;48.260;16.432;2023-07-20T11:55:37;5.68;;;1.90;;
4021;SDS011;2025;48.260;16.432;2023-07-20T11:58:05;5.68;;;0.43;;
4021;SDS011;2025;48.260;16.432;2023-07-20T12:00:34;3.97;;;1.55;;
4021;SDS011;2025;48.260;16.432;2023-07-20T12:03:04;5.75;;;0.95;;
4021;SDS011;2025;48.260;16.432;2023-07-20T12:05:32;4.45;;;1.58;;
4021;SDS011;2025;48.260;16.432;2023-07-20T12:07:59;4.78;;;1.23;;
4021;SDS011;2025;48.260;16.432;2023-07-20T12:10:27;4.70;;;0.70;;
4021;SDS011;2025;48.260;16.432;2023-07-20T12:13:00;3.63;;;0.88;;
4021;SDS011;2025;48.260;16.432;2023-07-20T12:15:28;5.32;;;1.13;;
4021;SDS011;2025;48.260;16.432;2023-07-20T12:17:59;4.57;;;0.77;;
4021;SDS011;2025;48.260;16.432;2023-07-20T12:20:28;4.65;;;0.85;;
4021;SDS011;2025;48.260;16.432;2023-07-20T12:22:56;6.97;;;1.75;;
4021;SDS011;2025;48.260;16.432;2023-07-20T12:25:38;6.10;;;0.85;;
4021;SDS011;2025;48.260;16.432;2023-07-20T12:28:06;6.20;;;0.73;;
4021;SDS011;2025;48.260;16.432;2023-07-20T12:30:34;3.67;;;1.05;;
4021;SDS011;2025;48.260;16.432;2023-07-20T12:33:03;3.85;;;0.80;;
4021;SDS011;2025;48.260;16.432;2023-07-20T12:35:30;4.30;;;1.00;;
4021;SDS011;2025;48.260;16.432;2023-07-20T12:37:58;5.50;;;0.40;;
4021;SDS011;2025;48.260;16.432;2023-07-20T12:40:25;5.20;;;1.13;;
4021;SDS011;2025;48.260;16.432;2023-07-20T12:42:52;4.53;;;0.57;;
4021;SDS011;2025;48.260;16.432;2023-07-20T12:45:19;4.35;;;1.48;;
4021;SDS011;2025;48.260;16.432;2023-07-20T12:47:46;4.13;;;1.42;;
4021;SDS011;2025;48.260;16.432;2023-07-20T12:50:15;3.13;;;0.60;;
4021;SDS011;2025;48.260;16.432;2023-07-20T12:52:41;4.13;;;0.73;;
4021;SDS011;2025;48.260;16.432;2023-07-20T12:55:09;4.05;;;0.70;;
4021;SDS011;2025;48.260;16.432;2023-07-20T12:57:36;4.85;;;0.77;;
4021;SDS011;2025;48.260;16.432;2023-07-20T13:00:04;3.65;;;0.45;;
4021;SDS011;2025;48.260;16.432;2023-07-20T13:02:34;4.03;;;0.85;;
4021;SDS011;2025;48.260;16.432;2023-07-20T13:05:01;4.22;;;0.60;;
4021;SDS011;2025;48.260;16.432;2023-07-20T13:07:30;4.20;;;0.55;;
4021;SDS011;2025;48.260;16.432;2023-07-20T13:09:58;6.20;;;1.10;;
4021;SDS011;2025;48.260;16.432;2023-07-20T13:12:25;4.28;;;0.57;;
4021;SDS011;2025;48.260;16.432;2023-07-20T13:14:53;3.45;;;1.08;;
4021;SDS011;2025;48.260;16.432;2023-07-20T13:17:20;4.22;;;0.63;;
4021;SDS011;2025;48.260;16.432;2023-07-20T13:19:47;5.10;;;0.80;;
4021;SDS011;2025;48.260;16.432;2023-07-20T13:22:14;4.55;;;0.60;;
4021;SDS011;2025;48.260;16.432;2023-07-20T13:24:44;4.35;;;0.80;;
4021;SDS011;2025;48.260;16.432;2023-07-20T13:27:11;5.95;;;0.57;;
4021;SDS011;2025;48.260;16.432;2023-07-20T13:29:38;5.95;;;0.75;;
4021;SDS011;2025;48.260;16.432;2023-07-20T13:32:06;5.53;;;0.88;;
4021;SDS011;2025;48.260;16.432;2023-07-20T13:34:34;5.57;;;1.15;;
4021;SDS011;2025;48.260;16.432;2023-07-20T13:37:01;5.65;;;0.95;;
4021;SDS011;2025;48.260;16.432;2023-07-20T13:39:28;3.67;;;0.63;;
4021;SDS011;2025;48.260;16.432;2023-07-20T13:41:57;4.90;;;0.68;;
4021;SDS011;2025;48.260;16.432;2023-07-20T13:44:24;4.05;;;0.77;;
4021;SDS011;2025;48.260;16.432;2023-07-20T13:46:51;4.22;;;0.70;;
4021;SDS011;2025;48.260;16.432;2023-07-20T13:49:18;3.20;;;1.15;;
4021;SDS011;2025;48.260;16.432;2023-07-20T13:51:45;4.78;;;1.08;;
4021;SDS011;2025;48.260;16.432;2023-07-20T13:54:12;4.95;;;1.20;;
4021;SDS011;2025;48.260;16.432;2023-07-20T13:56:39;4.60;;;0.80;;
4021;SDS011;2025;48.260;16.432;2023-07-20T13:59:07;4.28;;;1.30;;
4021;SDS011;2025;48.260;16.432;2023-07-20T14:01:34;4.85;;;1.73;;
4021;SDS011;2025;48.260;16.432;2023-07-20T14:04:01;3.80;;;0.68;;
4021;SDS011;2025;48.260;16.432;2023-07-20T14:06:29;4.47;;;1.02;;
4021;SDS011;2025;48.260;16.432;2023-07-20T14:08:57;3.88;;;0.60;;
4021;SDS011;2025;48.260;16.432;2023-07-20T14:11:24;3.72;;;0.50;;
4021;SDS011;2025;48.260;16.432;2023-07-20T14:13:52;4.80;;;0.60;;
4021;SDS011;2025;48.260;16.432;2023-07-20T14:16:20;4.28;;;0.90;;
4021;SDS011;2025;48.260;16.432;2023-07-20T14:18:48;4.05;;;0.73;;
4021;SDS011;2025;48.260;16.432;2023-07-20T14:21:15;3.92;;;1.30;;
4021;SDS011;2025;48.260;16.432;2023-07-20T14:23:44;4.18;;;1.27;;
4021;SDS011;2025;48.260;16.432;2023-07-20T14:26:12;4.65;;;0.88;;
4021;SDS011;2025;48.260;16.432;2023-07-20T14:28:39;5.68;;;0.73;;
4021;SDS011;2025;48.260;16.432;2023-07-20T14:31:06;4.50;;;0.70;;
4021;SDS011;2025;48.260;16.432;2023-07-20T14:33:34;3.25;;;0.43;;
4021;SDS011;2025;48.260;16.432;2023-07-20T14:36:01;5.68;;;1.17;;
4021;SDS011;2025;48.260;16.432;2023-07-20T14:38:28;6.30;;;1.13;;
4021;SDS011;2025;48.260;16.432;2023-07-20T14:40:57;3.85;;;0.88;;
4021;SDS011;2025;48.260;16.432;2023-07-20T14:43:24;4.85;;;1.00;;
4021;SDS011;2025;48.260;16.432;2023-07-20T14:45:51;3.90;;;0.90;;
4021;SDS011;2025;48.260;16.432;2023-07-20T14:48:19;4.20;;;1.27;;
4021;SDS011;2025;48.260;16.432;2023-07-20T14:50:48;5.22;;;1.70;;
4021;SDS011;2025;48.260;16.432;2023-07-20T14:53:15;6.78;;;0.95;;
4021;SDS011;2025;48.260;16.432;2023-07-20T14:55:42;4.82;;;1.10;;
4021;SDS011;2025;48.260;16.432;2023-07-20T14:58:09;4.07;;;0.47;;
4021;SDS011;2025;48.260;16.432;2023-07-20T15:00:36;3.75;;;0.82;;
4021;SDS011;2025;48.260;16.432;2023-07-20T15:03:04;4.53;;;0.73;;
4021;SDS011;2025;48.260;16.432;2023-07-20T15:05:31;4.88;;;0.70;;
4021;SDS011;2025;48.260;16.432;2023-07-20T15:07:59;4.53;;;1.63;;
4021;SDS011;2025;48.260;16.432;2023-07-20T15:10:26;5.07;;;0.75;;
4021;SDS011;2025;48.260;16.432;2023-07-20T15:12:54;6.97;;;0.88;;
4021;SDS011;2025;48.260;16.432;2023-07-20T15:15:21;4.25;;;1.02;;
4021;SDS011;2025;48.260;16.432;2023-07-20T15:17:48;5.45;;;1.08;;
4021;SDS011;2025;48.260;16.432;2023-07-20T15:20:15;5.47;;;0.80;;